createdAt,value
2017-09-26T00:01:12.802Z,93.85
2017-09-26T00:03:48.445Z,93.87
2017-09-26T00:06:23.023Z,93.95
2017-09-26T00:08:57.883Z,94.36
2017-09-26T00:11:32.755Z,94.74
2017-09-26T00:14:08.349Z,94.86
2017-09-26T00:16:43.407Z,94.95
2017-09-26T00:19:17.903Z,95.04
2017-09-26T00:21:52.654Z,94.74
2017-09-26T00:24:27.394Z,94.72
2017-09-26T00:27:02.265Z,95.13
2017-09-26T00:29:37.026Z,94.91
2017-09-26T00:32:11.746Z,95.13
2017-09-26T00:34:46.321Z,95.24
2017-09-26T00:37:20.989Z,95.56
2017-09-26T00:39:56.010Z,97.08
2017-09-26T00:42:30.805Z,97.47
2017-09-26T00:45:05.449Z,97.13
2017-09-26T00:47:40.455Z,97.14
2017-09-26T00:50:14.925Z,97.13
2017-09-26T00:52:49.573Z,96.64
2017-09-26T00:55:24.057Z,96.51
2017-09-26T00:57:58.795Z,96.47
2017-09-26T01:00:38.772Z,96.29
2017-09-26T01:03:13.869Z,96.45
2017-09-26T01:05:48.813Z,96.38
2017-09-26T01:08:23.272Z,96.17
2017-09-26T01:10:58.415Z,96.45
2017-09-26T01:13:33.174Z,96.76
2017-09-26T01:16:07.911Z,96.98
2017-09-26T01:18:43.441Z,96.82
2017-09-26T01:21:18.194Z,96.77
2017-09-26T01:23:52.268Z,96.77
2017-09-26T01:26:27.037Z,97.02
2017-09-26T01:29:01.475Z,97.03
2017-09-26T01:31:35.949Z,96.82
2017-09-26T01:34:10.749Z,96.70
2017-09-26T01:36:45.375Z,96.36
2017-09-26T01:39:20.013Z,96.09
2017-09-26T01:41:54.649Z,96.37
2017-09-26T01:44:29.260Z,96.71
2017-09-26T01:47:04.001Z,97.13
2017-09-26T01:49:38.553Z,97.09
2017-09-26T01:52:13.213Z,97.32
2017-09-26T01:54:47.913Z,97.13
2017-09-26T02:10:45.600Z,96.21
2017-09-26T02:13:20.227Z,96.09
2017-09-26T02:15:55.065Z,96.30
2017-09-26T02:18:29.612Z,96.33
2017-09-26T02:21:04.383Z,96.29
2017-09-26T02:23:38.989Z,96.19
2017-09-26T02:26:13.808Z,96.24
2017-09-26T02:28:48.580Z,96.21
2017-09-26T02:31:23.625Z,96.17
2017-09-26T02:33:58.549Z,96.28
2017-09-26T02:36:33.337Z,96.30
2017-09-26T02:39:08.120Z,96.06
2017-09-26T02:41:42.889Z,95.89
2017-09-26T02:44:17.564Z,95.61
2017-09-26T02:46:52.383Z,95.30
2017-09-26T02:49:27.112Z,95.15
2017-09-26T02:52:01.746Z,95.05
2017-09-26T02:54:36.337Z,95.00
2017-09-26T02:57:10.753Z,95.12
2017-09-26T02:59:45.920Z,95.11
2017-09-26T03:02:20.763Z,95.11
2017-09-26T03:04:55.561Z,95.18
2017-09-26T03:07:30.293Z,95.16
2017-09-26T03:10:05.032Z,95.14
2017-09-26T03:12:40.168Z,95.28
2017-09-26T03:15:15.439Z,95.86
2017-09-26T03:17:50.094Z,95.94
2017-09-26T03:20:24.825Z,96.18
2017-09-26T03:22:59.760Z,96.69
2017-09-26T03:25:34.517Z,96.66
2017-09-26T03:28:08.959Z,96.60
2017-09-26T03:30:43.502Z,96.67
2017-09-26T03:33:18.639Z,97.00
2017-09-26T03:35:53.569Z,97.42
2017-09-26T03:38:28.484Z,97.45
2017-09-26T03:41:03.747Z,97.61
2017-09-26T03:43:38.260Z,97.59
2017-09-26T03:46:12.801Z,97.63
2017-09-26T03:48:47.892Z,97.83
2017-09-26T03:51:22.592Z,97.70
2017-09-26T03:53:57.353Z,97.88
2017-09-26T03:56:32.191Z,97.95
2017-09-26T03:59:06.812Z,97.85
2017-09-26T04:01:41.851Z,97.46
2017-09-26T04:04:16.781Z,97.63
2017-09-26T04:06:51.169Z,98.00
2017-09-26T04:09:26.372Z,97.92
2017-09-26T04:12:01.121Z,97.90
2017-09-26T04:14:35.857Z,97.76
2017-09-26T04:17:10.624Z,97.74
2017-09-26T04:19:45.381Z,97.60
2017-09-26T04:22:20.478Z,97.54
2017-09-26T04:24:55.341Z,97.89
2017-09-26T04:27:30.127Z,97.85
2017-09-26T04:30:05.249Z,97.61
2017-09-26T04:32:39.929Z,97.93
2017-09-26T04:35:24.429Z,97.90
2017-09-26T04:37:59.057Z,97.97
2017-09-26T04:40:34.038Z,97.83
2017-09-26T04:43:09.049Z,97.67
2017-09-26T04:45:43.985Z,97.70
2017-09-26T04:48:18.850Z,97.75
2017-09-26T04:50:53.705Z,97.64
2017-09-26T04:53:29.231Z,98.03
2017-09-26T04:56:04.237Z,97.94
2017-09-26T04:58:38.989Z,97.72
2017-09-26T05:01:13.604Z,97.59
2017-09-26T05:03:48.411Z,97.73
2017-09-26T05:06:23.519Z,98.03
2017-09-26T05:08:58.257Z,97.70
2017-09-26T05:11:33.001Z,97.63
2017-09-26T05:14:07.932Z,97.52
2017-09-26T05:16:42.760Z,97.66
2017-09-26T05:19:17.091Z,97.84
2017-09-26T05:21:52.117Z,97.85
2017-09-26T05:24:26.925Z,97.76
2017-09-26T05:27:01.648Z,97.57
2017-09-26T05:29:36.451Z,97.35
2017-09-26T05:32:11.329Z,97.44
2017-09-26T05:34:46.266Z,97.68
2017-09-26T05:37:21.677Z,97.92
2017-09-26T05:39:56.732Z,97.87
2017-09-26T05:42:31.144Z,97.77
2017-09-26T05:45:05.985Z,97.56
2017-09-26T05:47:40.761Z,97.59
2017-09-26T05:50:15.729Z,97.49
2017-09-26T05:52:50.470Z,97.55
2017-09-26T05:55:25.485Z,97.08
2017-09-26T05:58:00.394Z,97.29
2017-09-26T06:00:35.463Z,97.34
2017-09-26T06:03:10.625Z,97.38
2017-09-26T06:05:45.266Z,97.31
2017-09-26T06:08:19.835Z,97.12
2017-09-26T06:10:54.656Z,97.11
2017-09-26T06:13:29.240Z,97.15
2017-09-26T06:16:03.918Z,97.12
2017-09-26T06:18:38.638Z,97.01
2017-09-26T06:21:14.278Z,96.96
2017-09-26T06:23:48.639Z,96.96
2017-09-26T06:26:23.265Z,96.29
2017-09-26T06:28:57.909Z,96.04
2017-09-26T06:31:32.449Z,96.08
2017-09-26T06:34:07.229Z,95.59
2017-09-26T06:36:41.887Z,95.82
2017-09-26T06:39:17.001Z,96.03
2017-09-26T06:41:51.848Z,96.32
2017-09-26T06:44:26.885Z,96.67
2017-09-26T06:47:01.629Z,96.88
2017-09-26T06:49:36.075Z,97.34
2017-09-26T06:52:10.967Z,97.10
2017-09-26T06:54:46.116Z,97.09
2017-09-26T06:57:21.145Z,97.17
2017-09-26T06:59:56.001Z,97.27
2017-09-26T07:02:30.778Z,97.43
2017-09-26T07:05:05.510Z,97.37
2017-09-26T07:07:41.230Z,97.04
2017-09-26T07:10:15.870Z,97.01
2017-09-26T07:12:50.715Z,96.75
2017-09-26T07:15:25.477Z,96.46
2017-09-26T07:18:00.156Z,96.26
2017-09-26T07:20:40.489Z,96.62
2017-09-26T07:23:15.393Z,96.63
2017-09-26T07:25:50.199Z,96.52
2017-09-26T07:28:25.865Z,96.06
2017-09-26T07:31:01.314Z,96.09
2017-09-26T07:33:36.125Z,95.38
2017-09-26T07:36:10.901Z,95.79
2017-09-26T07:38:45.896Z,95.46
2017-09-26T07:41:20.702Z,94.91
2017-09-26T07:43:55.658Z,94.78
2017-09-26T07:46:30.593Z,95.30
2017-09-26T07:49:05.517Z,95.34
2017-09-26T07:51:40.157Z,95.34
2017-09-26T07:54:14.838Z,95.22
2017-09-26T07:56:50.182Z,94.96
2017-09-26T07:59:24.829Z,94.75
2017-09-26T08:01:59.743Z,94.55
2017-09-26T08:04:34.517Z,94.15
2017-09-26T08:07:09.057Z,93.97
2017-09-26T08:09:43.773Z,93.67
2017-09-26T08:12:18.402Z,93.56
2017-09-26T08:14:53.140Z,93.74
2017-09-26T08:17:28.185Z,93.59
2017-09-26T08:20:03.015Z,93.84
2017-09-26T08:22:38.217Z,93.89
2017-09-26T08:25:12.989Z,93.75
2017-09-26T08:27:47.687Z,93.60
2017-09-26T08:30:23.311Z,93.90
2017-09-26T08:32:58.167Z,93.89
2017-09-26T08:35:33.024Z,93.36
2017-09-26T08:38:07.609Z,92.54
2017-09-26T08:40:42.185Z,92.38
2017-09-26T08:43:17.004Z,92.18
2017-09-26T08:45:51.795Z,91.73
2017-09-26T08:48:26.728Z,90.49
2017-09-26T08:51:01.783Z,88.49
2017-09-26T08:53:36.731Z,88.41
2017-09-26T08:56:12.050Z,89.57
2017-09-26T08:58:46.917Z,89.44
2017-09-26T09:01:21.728Z,89.85
2017-09-26T09:03:56.756Z,90.35
2017-09-26T09:06:31.423Z,90.00
2017-09-26T09:09:06.413Z,90.19
2017-09-26T09:11:41.169Z,90.08
2017-09-26T09:14:16.317Z,90.03
2017-09-26T09:16:50.945Z,90.73
2017-09-26T09:19:25.843Z,90.69
2017-09-26T09:22:00.708Z,90.22
2017-09-26T09:24:36.529Z,90.53
2017-09-26T09:27:11.233Z,90.52
2017-09-26T09:29:46.117Z,89.78
2017-09-26T09:32:21.437Z,87.94
2017-09-26T09:34:56.397Z,87.05
2017-09-26T09:37:31.301Z,86.97
2017-09-26T09:40:05.791Z,87.21
2017-09-26T09:42:40.834Z,86.83
2017-09-26T09:45:15.620Z,88.14
2017-09-26T09:47:51.049Z,87.51
2017-09-26T09:50:25.628Z,86.83
2017-09-26T09:53:00.574Z,87.18
2017-09-26T09:55:35.816Z,86.34
2017-09-26T09:58:10.833Z,86.46
2017-09-26T10:00:45.602Z,85.79
2017-09-26T10:03:20.606Z,85.30
2017-09-26T10:05:55.465Z,85.96
2017-09-26T10:08:30.391Z,85.87
2017-09-26T10:11:05.291Z,85.21
2017-09-26T10:13:39.930Z,85.71
2017-09-26T10:16:14.805Z,85.27
2017-09-26T10:18:49.580Z,85.27
2017-09-26T10:21:24.465Z,84.11
2017-09-26T10:23:59.370Z,83.63
2017-09-26T10:26:34.220Z,83.80
2017-09-26T10:29:09.018Z,82.97
2017-09-26T10:31:43.968Z,82.79
2017-09-26T10:34:18.906Z,83.03
2017-09-26T10:36:54.058Z,81.37
2017-09-26T10:39:29.185Z,80.92
2017-09-26T10:42:04.096Z,81.26
2017-09-26T10:44:39.415Z,80.64
2017-09-26T10:47:14.794Z,81.05
2017-09-26T10:49:49.776Z,81.60
2017-09-26T10:52:24.622Z,81.68
2017-09-26T10:54:59.628Z,81.09
2017-09-26T10:57:34.699Z,81.37
2017-09-26T11:00:09.756Z,82.46
2017-09-26T11:02:44.903Z,81.24
2017-09-26T11:05:19.825Z,80.67
2017-09-26T11:07:54.473Z,79.75
2017-09-26T11:10:29.550Z,79.87
2017-09-26T11:13:03.765Z,78.70
2017-09-26T11:15:38.659Z,76.58
2017-09-26T11:18:13.039Z,76.76
2017-09-26T11:20:48.500Z,75.72
2017-09-26T11:23:22.820Z,74.39
2017-09-26T11:25:57.772Z,75.20
2017-09-26T11:28:32.656Z,75.08
2017-09-26T11:31:07.630Z,75.58
2017-09-26T11:33:42.677Z,76.68
2017-09-26T11:36:17.573Z,75.71
2017-09-26T11:38:52.340Z,73.61
2017-09-26T11:41:27.361Z,74.16
2017-09-26T11:44:02.619Z,74.26
2017-09-26T11:46:37.750Z,73.71
2017-09-26T11:49:12.692Z,74.29
2017-09-26T11:51:48.101Z,75.74
2017-09-26T11:54:22.869Z,76.91
2017-09-26T11:56:57.473Z,77.67
2017-09-26T11:59:37.790Z,77.96
2017-09-26T12:02:12.325Z,78.32
2017-09-26T12:04:47.096Z,78.45
2017-09-26T12:07:22.088Z,79.21
2017-09-26T12:09:56.809Z,79.20
2017-09-26T12:12:31.604Z,78.34
2017-09-26T12:15:06.984Z,78.43
2017-09-26T12:17:42.300Z,77.75
2017-09-26T12:20:17.349Z,76.67
2017-09-26T12:22:52.159Z,76.95
2017-09-26T12:25:26.801Z,76.46
2017-09-26T12:28:01.921Z,76.37
2017-09-26T12:30:36.732Z,77.14
2017-09-26T12:33:11.576Z,76.40
2017-09-26T12:35:46.596Z,76.85
2017-09-26T12:38:21.025Z,75.38
2017-09-26T12:40:55.873Z,75.28
2017-09-26T12:43:30.814Z,75.19
2017-09-26T12:46:05.643Z,76.21
2017-09-26T12:48:40.501Z,77.04
2017-09-26T12:51:15.416Z,78.35
2017-09-26T12:53:50.255Z,78.36
2017-09-26T12:56:25.085Z,78.10
2017-09-26T12:59:00.109Z,77.43
2017-09-26T13:01:35.103Z,76.53
2017-09-26T13:04:10.014Z,76.96
2017-09-26T13:06:45.076Z,75.70
2017-09-26T13:09:19.972Z,74.71
2017-09-26T13:11:55.320Z,75.76
2017-09-26T13:14:30.216Z,77.02
2017-09-26T13:17:05.285Z,77.16
2017-09-26T13:19:39.621Z,77.01
2017-09-26T13:22:14.579Z,76.87
2017-09-26T13:24:49.848Z,76.56
2017-09-26T13:27:24.936Z,76.32
2017-09-26T13:29:59.440Z,76.20
2017-09-26T13:32:34.378Z,75.25
2017-09-26T13:35:09.178Z,74.82
2017-09-26T13:37:44.204Z,74.93
2017-09-26T13:40:18.914Z,75.26
2017-09-26T13:42:53.649Z,76.33
2017-09-26T13:45:28.505Z,76.21
2017-09-26T13:48:03.467Z,75.39
2017-09-26T13:50:38.143Z,76.17
2017-09-26T13:53:13.358Z,75.63
2017-09-26T13:55:47.791Z,75.16
2017-09-26T13:58:22.729Z,74.74
2017-09-26T14:00:57.569Z,73.57
2017-09-26T14:03:32.429Z,72.43
2017-09-26T14:06:07.254Z,72.35
2017-09-26T14:08:42.013Z,72.14
2017-09-26T14:11:16.856Z,72.46
2017-09-26T14:13:51.684Z,71.83
2017-09-26T14:16:26.818Z,72.59
2017-09-26T14:19:01.861Z,74.21
2017-09-26T14:21:36.816Z,72.50
2017-09-26T14:24:11.772Z,72.21
2017-09-26T14:26:46.809Z,71.91
2017-09-26T14:29:21.539Z,73.38
2017-09-26T14:31:56.353Z,72.72
2017-09-26T14:34:31.433Z,73.20
2017-09-26T14:37:06.457Z,73.59
2017-09-26T14:39:40.950Z,74.32
2017-09-26T14:42:15.687Z,74.74
2017-09-26T14:44:50.625Z,74.65
2017-09-26T14:47:25.433Z,75.05
2017-09-26T14:49:59.975Z,74.85
2017-09-26T14:52:34.696Z,74.41
2017-09-26T14:55:09.418Z,73.89
2017-09-26T14:57:43.969Z,73.82
2017-09-26T15:00:18.878Z,75.10
2017-09-26T15:02:54.629Z,75.85
2017-09-26T15:05:29.569Z,76.54
2017-09-26T15:08:04.287Z,76.86
2017-09-26T15:10:39.112Z,76.13
2017-09-26T15:13:14.401Z,76.79
2017-09-26T15:15:49.227Z,76.73
2017-09-26T15:18:24.414Z,77.52
2017-09-26T15:20:59.165Z,77.36
2017-09-26T15:23:33.985Z,77.21
2017-09-26T15:26:08.709Z,77.44
2017-09-26T15:28:43.643Z,77.86
2017-09-26T15:31:18.465Z,78.53
2017-09-26T15:33:53.430Z,79.23
2017-09-26T15:36:28.024Z,79.48
2017-09-26T15:39:02.540Z,79.69
2017-09-26T15:41:37.670Z,80.23
2017-09-26T15:44:12.755Z,79.94
2017-09-26T15:46:47.502Z,80.49
2017-09-26T15:49:22.461Z,81.25
2017-09-26T15:51:57.537Z,81.88
2017-09-26T15:54:32.357Z,82.54
2017-09-26T15:57:07.466Z,83.08
2017-09-26T15:59:42.273Z,83.37
2017-09-26T16:02:17.268Z,83.65
2017-09-26T16:04:52.144Z,84.22
2017-09-26T16:07:27.269Z,83.66
2017-09-26T16:10:02.059Z,83.61
2017-09-26T16:12:36.876Z,83.06
2017-09-26T16:15:11.756Z,82.76
2017-09-26T16:17:46.650Z,82.36
2017-09-26T16:20:21.497Z,82.11
2017-09-26T16:22:56.306Z,82.25
2017-09-26T16:25:31.153Z,82.03
2017-09-26T16:28:06.105Z,82.02
2017-09-26T16:30:40.944Z,81.70
2017-09-26T16:33:16.185Z,81.59
2017-09-26T16:35:52.490Z,81.45
2017-09-26T16:38:27.001Z,81.31
2017-09-26T16:41:01.608Z,81.10
2017-09-26T16:43:36.548Z,81.18
2017-09-26T16:46:11.545Z,81.61
2017-09-26T16:48:46.526Z,81.59
2017-09-26T16:51:21.632Z,82.46
2017-09-26T16:53:56.382Z,82.58
2017-09-26T16:56:31.745Z,82.99
2017-09-26T16:59:07.315Z,83.29
2017-09-26T17:01:42.717Z,83.53
2017-09-26T17:04:17.414Z,83.76
2017-09-26T17:06:52.168Z,84.35
2017-09-26T17:09:27.234Z,84.11
2017-09-26T17:12:02.160Z,83.81
2017-09-26T17:14:37.016Z,84.01
2017-09-26T17:17:12.354Z,84.69
2017-09-26T17:19:47.003Z,84.69
2017-09-26T17:22:21.745Z,84.61
2017-09-26T17:24:56.590Z,84.47
2017-09-26T17:27:31.442Z,84.45
2017-09-26T17:30:06.270Z,84.56
2017-09-26T17:32:41.137Z,84.93
2017-09-26T17:35:15.929Z,85.02
2017-09-26T17:37:50.888Z,85.37
2017-09-26T17:40:25.907Z,85.69
2017-09-26T17:43:01.309Z,85.92
2017-09-26T17:45:35.892Z,85.83
2017-09-26T17:48:11.942Z,85.80
2017-09-26T17:50:51.798Z,86.22
2017-09-26T17:53:26.465Z,86.38
2017-09-26T17:56:02.178Z,86.82
2017-09-26T17:58:36.657Z,87.71
2017-09-26T18:01:11.748Z,87.59
2017-09-26T18:03:46.846Z,88.33
2017-09-26T18:06:21.789Z,88.71
2017-09-26T18:08:56.349Z,89.02
2017-09-26T18:11:31.265Z,89.44
2017-09-26T18:27:08.584Z,89.12
2017-09-26T18:29:43.992Z,89.19
2017-09-26T18:32:18.805Z,89.03
2017-09-26T18:34:53.662Z,88.78
2017-09-26T18:37:28.202Z,88.34
2017-09-26T18:40:02.898Z,88.31
2017-09-26T18:42:37.594Z,88.40
2017-09-26T18:45:12.545Z,88.47
2017-09-26T18:47:47.738Z,88.38
2017-09-26T18:50:22.392Z,88.54
2017-09-26T18:52:57.348Z,88.41
2017-09-26T18:55:32.037Z,88.64
2017-09-26T18:58:06.955Z,88.66
2017-09-26T19:00:42.800Z,88.64
2017-09-26T19:03:17.230Z,88.46
2017-09-26T19:05:51.973Z,88.37
2017-09-26T19:08:26.729Z,88.29
2017-09-26T19:11:01.473Z,88.42
2017-09-26T19:13:36.126Z,88.38
2017-09-26T19:16:13.189Z,88.44
2017-09-26T19:18:48.668Z,88.49
2017-09-26T19:21:23.410Z,88.55
2017-09-26T19:23:58.266Z,88.69
2017-09-26T19:26:33.128Z,88.78
2017-09-26T19:29:07.933Z,88.99
2017-09-26T19:31:42.717Z,89.37
2017-09-26T19:34:17.345Z,89.41
2017-09-26T19:36:52.052Z,89.22
2017-09-26T19:39:26.973Z,88.91
2017-09-26T19:42:02.682Z,88.83
2017-09-26T19:44:37.400Z,88.91
2017-09-26T19:47:12.199Z,88.90
2017-09-26T19:49:47.013Z,88.93
2017-09-26T19:52:21.747Z,89.30
2017-09-26T19:54:56.293Z,89.57
2017-09-26T19:57:31.970Z,89.53
2017-09-26T20:00:06.942Z,89.43
2017-09-26T20:02:41.464Z,89.58
2017-09-26T20:05:16.229Z,89.93
2017-09-26T20:07:51.283Z,90.16
2017-09-26T20:10:25.865Z,90.58
2017-09-26T20:13:00.688Z,90.79
2017-09-26T20:15:35.492Z,91.19
2017-09-26T20:18:10.340Z,92.31
2017-09-26T20:20:45.552Z,92.60
2017-09-26T20:23:20.509Z,92.49
2017-09-26T20:25:55.648Z,93.43
2017-09-26T20:28:30.157Z,93.63
2017-09-26T20:31:04.892Z,94.47
2017-09-26T20:33:39.641Z,94.59
2017-09-26T20:36:14.503Z,94.71
2017-09-26T20:38:49.397Z,94.50
2017-09-26T20:41:24.152Z,94.67
2017-09-26T20:43:59.325Z,94.07
2017-09-26T20:46:33.870Z,94.14
2017-09-26T20:49:08.655Z,94.52
2017-09-26T20:51:43.508Z,94.20
2017-09-26T20:54:18.219Z,93.55
2017-09-26T20:56:52.736Z,93.70
2017-09-26T20:59:27.677Z,93.40
2017-09-26T21:02:02.333Z,93.66
2017-09-26T21:04:37.108Z,93.37
2017-09-26T21:07:11.965Z,92.73
2017-09-26T21:09:46.693Z,92.82
2017-09-26T21:12:21.328Z,93.08
2017-09-26T21:14:56.216Z,93.32
2017-09-26T21:17:31.209Z,93.14
2017-09-26T21:20:05.711Z,92.94
2017-09-26T21:22:40.703Z,93.11
2017-09-26T21:25:15.450Z,92.97
2017-09-26T21:27:50.292Z,93.06
2017-09-26T21:30:24.966Z,93.12
2017-09-26T21:32:59.612Z,93.47
2017-09-26T21:35:34.615Z,93.46
2017-09-26T21:38:09.979Z,93.48
2017-09-26T21:40:45.061Z,93.34
2017-09-26T21:43:20.265Z,93.23
2017-09-26T21:45:55.216Z,93.12
2017-09-26T21:48:30.376Z,93.27
2017-09-26T21:51:05.298Z,93.40
2017-09-26T21:53:40.228Z,93.30
2017-09-26T21:56:14.724Z,94.16
2017-09-26T21:58:49.693Z,94.06
2017-09-26T22:01:25.157Z,94.08
2017-09-26T22:03:59.872Z,94.14
2017-09-26T22:06:34.608Z,94.28
2017-09-26T22:09:09.441Z,94.37
2017-09-26T22:11:43.933Z,94.34
2017-09-26T22:14:19.195Z,94.11
2017-09-26T22:16:54.361Z,94.47
2017-09-26T22:19:29.154Z,94.22
2017-09-26T22:22:04.005Z,95.02
2017-09-26T22:24:38.800Z,94.95
2017-09-26T22:27:13.709Z,95.08
2017-09-26T22:29:48.527Z,95.19
2017-09-26T22:32:23.293Z,95.44
2017-09-26T22:34:57.973Z,95.38
2017-09-26T22:37:33.464Z,95.69
2017-09-26T22:40:08.248Z,95.92
2017-09-26T22:42:43.079Z,95.81
2017-09-26T22:45:17.723Z,95.85
2017-09-26T22:47:52.537Z,95.85
2017-09-26T22:50:28.525Z,96.15
2017-09-26T22:53:03.477Z,95.98
2017-09-26T22:55:38.450Z,95.67
2017-09-26T22:58:13.354Z,95.43
2017-09-26T23:00:47.757Z,95.48
2017-09-26T23:03:23.087Z,95.63
2017-09-26T23:05:58.200Z,95.90
2017-09-26T23:08:32.445Z,95.76
2017-09-26T23:11:07.750Z,95.56
2017-09-26T23:13:42.985Z,95.38
2017-09-26T23:16:17.925Z,95.20
2017-09-26T23:18:52.734Z,95.10
2017-09-26T23:21:27.676Z,95.33
2017-09-26T23:24:02.589Z,95.28
2017-09-26T23:26:37.405Z,95.38
2017-09-26T23:29:12.704Z,95.25
2017-09-26T23:31:48.425Z,95.11
2017-09-26T23:34:23.049Z,94.89
2017-09-26T23:36:58.056Z,94.73
2017-09-26T23:39:32.884Z,94.67
2017-09-26T23:42:07.861Z,94.54
2017-09-26T23:44:42.401Z,94.33
2017-09-26T23:47:17.305Z,94.09
2017-09-26T23:49:52.097Z,93.89
2017-09-26T23:52:26.573Z,93.50
2017-09-26T23:55:01.302Z,93.38
2017-09-26T23:57:36.315Z,93.49
